Kansas, Ohio
Current Conditions -  °F | °C
As of 8:53 AM on Monday 26 Jan 2015 (Local Time) from KTDZ Reporting Station
Overcast Overcast  
Wind Chill:   Ceiling: 1400
Heat Index: 14°   Visibility: 10mi
Dew Point:   Wind: 9mph
Humidity: 71%   Direction: 30°NNE
Pressure: 29.94"   Gusts: NA
Location:  41.24°N, 83.28°W
Report Text: KTDZ 261353Z AUTO 03008KT 10SM OVC014 M10/M14 A2994 RMK AO2 SLP147 T11001144 TSNO
Loading
Personal Weather Stations






























Interactive Weather Map New forecast layout! Learn more

10-Day Weather Forecast

Advertisements
Track Severe Weather on mobile